sensor_id;sensor_type;location;lat;lon;timestamp;pressure;altitude;pressure_sealevel;temperature;humidity
12077;BME280;12420;42.676;23.262;2023-04-01T00:00:52;93662.22;;;12.41;79.26
12077;BME280;12420;42.676;23.262;2023-04-01T00:03:19;93688.09;;;12.44;78.32
12077;BME280;12420;42.676;23.262;2023-04-01T00:05:47;93702.56;;;12.75;79.04
12077;BME280;12420;42.676;23.262;2023-04-01T00:08:14;93701.34;;;12.60;79.65
12077;BME280;12420;42.676;23.262;2023-04-01T00:10:41;93705.66;;;12.46;79.61
12077;BME280;12420;42.676;23.262;2023-04-01T00:13:09;93711.22;;;12.46;80.59
12077;BME280;12420;42.676;23.262;2023-04-01T00:15:36;93676.63;;;12.07;81.87
12077;BME280;12420;42.676;23.262;2023-04-01T00:18:04;93726.97;;;12.36;82.15
12077;BME280;12420;42.676;23.262;2023-04-01T00:20:31;93700.97;;;12.16;81.77
12077;BME280;12420;42.676;23.262;2023-04-01T00:22:58;93716.19;;;12.07;82.51
12077;BME280;12420;42.676;23.262;2023-04-01T00:25:25;93713.91;;;12.29;80.89
12077;BME280;12420;42.676;23.262;2023-04-01T00:27:52;93704.31;;;12.14;79.86
12077;BME280;12420;42.676;23.262;2023-04-01T00:30:20;93685.94;;;11.63;82.02
12077;BME280;12420;42.676;23.262;2023-04-01T00:32:46;93662.66;;;11.59;82.78
12077;BME280;12420;42.676;23.262;2023-04-01T00:35:13;93672.28;;;11.58;83.79
12077;BME280;12420;42.676;23.262;2023-04-01T00:37:40;93712.91;;;11.78;84.74
12077;BME280;12420;42.676;23.262;2023-04-01T00:40:18;93670.59;;;11.55;85.57
12077;BME280;12420;42.676;23.262;2023-04-01T00:42:47;93670.59;;;11.55;85.50
12077;BME280;12420;42.676;23.262;2023-04-01T00:45:29;93687.59;;;11.66;86.65
12077;BME280;12420;42.676;23.262;2023-04-01T00:48:01;93683.38;;;11.58;87.01
12077;BME280;12420;42.676;23.262;2023-04-01T00:50:30;93686.69;;;11.56;86.79
12077;BME280;12420;42.676;23.262;2023-04-01T00:53:00;93687.44;;;11.49;88.04
12077;BME280;12420;42.676;23.262;2023-04-01T00:55:29;93647.94;;;11.33;89.31
12077;BME280;12420;42.676;23.262;2023-04-01T00:57:58;93605.13;;;11.03;88.57
12077;BME280;12420;42.676;23.262;2023-04-01T01:00:27;93604.94;;;10.78;89.76
12077;BME280;12420;42.676;23.262;2023-04-01T01:02:54;93661.94;;;11.58;89.71
12077;BME280;12420;42.676;23.262;2023-04-01T01:05:30;93650.31;;;11.44;90.72
12077;BME280;12420;42.676;23.262;2023-04-01T01:08:03;93626.88;;;11.45;90.21
12077;BME280;12420;42.676;23.262;2023-04-01T01:10:35;93619.50;;;11.33;90.77
12077;BME280;12420;42.676;23.262;2023-04-01T01:13:11;93620.56;;;11.52;88.99
12077;BME280;12420;42.676;23.262;2023-04-01T01:15:45;93635.88;;;11.61;88.42
12077;BME280;12420;42.676;23.262;2023-04-01T01:18:19;93636.06;;;11.56;89.40
12077;BME280;12420;42.676;23.262;2023-04-01T01:27:03;93605.09;;;11.19;87.14
12077;BME280;12420;42.676;23.262;2023-04-01T01:29:59;93601.91;;;11.53;87.24
12077;BME280;12420;42.676;23.262;2023-04-01T01:33:01;93598.44;;;11.29;86.27
12077;BME280;12420;42.676;23.262;2023-04-01T01:35:36;93609.72;;;11.16;86.50
12077;BME280;12420;42.676;23.262;2023-04-01T01:38:08;93617.09;;;11.29;86.38
12077;BME280;12420;42.676;23.262;2023-04-01T01:40:39;93567.09;;;11.04;86.00
12077;BME280;12420;42.676;23.262;2023-04-01T01:43:11;93614.31;;;11.37;86.09
12077;BME280;12420;42.676;23.262;2023-04-01T01:45:44;93566.34;;;11.19;86.33
12077;BME280;12420;42.676;23.262;2023-04-01T01:48:13;93616.69;;;11.56;85.34
12077;BME280;12420;42.676;23.262;2023-04-01T01:50:45;93613.50;;;11.59;84.25
12077;BME280;12420;42.676;23.262;2023-04-01T01:53:14;93615.91;;;11.70;83.25
12077;BME280;12420;42.676;23.262;2023-04-01T01:55:42;93610.88;;;11.77;83.54
12077;BME280;12420;42.676;23.262;2023-04-01T01:58:11;93512.06;;;11.16;82.70
12077;BME280;12420;42.676;23.262;2023-04-01T02:00:41;93594.06;;;11.74;80.71
12077;BME280;12420;42.676;23.262;2023-04-01T02:03:10;93591.28;;;11.74;81.39
12077;BME280;12420;42.676;23.262;2023-04-01T02:05:40;93590.72;;;11.84;81.49
12077;BME280;12420;42.676;23.262;2023-04-01T02:08:12;93599.94;;;11.94;80.34
12077;BME280;12420;42.676;23.262;2023-04-01T02:10:43;93560.28;;;11.68;79.27
12077;BME280;12420;42.676;23.262;2023-04-01T02:13:16;93553.09;;;11.65;78.67
12077;BME280;12420;42.676;23.262;2023-04-01T02:15:47;93563.19;;;11.86;78.32
12077;BME280;12420;42.676;23.262;2023-04-01T02:18:17;93565.41;;;11.80;78.11
12077;BME280;12420;42.676;23.262;2023-04-01T02:20:45;93585.53;;;11.88;79.17
12077;BME280;12420;42.676;23.262;2023-04-01T02:23:14;93576.16;;;11.76;78.86
12077;BME280;12420;42.676;23.262;2023-04-01T02:25:42;93583.81;;;12.00;78.98
12077;BME280;12420;42.676;23.262;2023-04-01T02:28:10;93568.75;;;11.78;79.74
12077;BME280;12420;42.676;23.262;2023-04-01T02:30:42;93588.09;;;12.01;79.81
12077;BME280;12420;42.676;23.262;2023-04-01T02:33:10;93599.69;;;12.07;79.40
12077;BME280;12420;42.676;23.262;2023-04-01T02:35:37;93577.75;;;11.94;79.09
12077;BME280;12420;42.676;23.262;2023-04-01T02:38:05;93596.47;;;12.19;77.50
12077;BME280;12420;42.676;23.262;2023-04-01T02:40:43;93603.16;;;12.15;78.35
12077;BME280;12420;42.676;23.262;2023-04-01T02:43:11;93580.91;;;11.90;76.61
12077;BME280;12420;42.676;23.262;2023-04-01T02:45:38;93590.28;;;12.03;76.25
12077;BME280;12420;42.676;23.262;2023-04-01T02:48:05;93590.53;;;11.89;78.07
12077;BME280;12420;42.676;23.262;2023-04-01T02:50:40;93595.50;;;11.99;78.38
12077;BME280;12420;42.676;23.262;2023-04-01T02:53:07;93606.78;;;11.85;79.25
12077;BME280;12420;42.676;23.262;2023-04-01T02:55:34;93567.53;;;11.56;76.52
12077;BME280;12420;42.676;23.262;2023-04-01T02:58:02;93606.59;;;11.99;75.60
12077;BME280;12420;42.676;23.262;2023-04-01T03:00:29;93614.13;;;11.98;75.42
12077;BME280;12420;42.676;23.262;2023-04-01T03:02:56;93632.31;;;11.84;75.09
12077;BME280;12420;42.676;23.262;2023-04-01T03:05:23;93621.72;;;11.98;75.92
12077;BME280;12420;42.676;23.262;2023-04-01T03:07:51;93571.34;;;11.76;75.90
12077;BME280;12420;42.676;23.262;2023-04-01T03:10:20;93617.25;;;12.10;74.71
12077;BME280;12420;42.676;23.262;2023-04-01T03:12:47;93579.25;;;11.80;75.43
12077;BME280;12420;42.676;23.262;2023-04-01T03:15:15;93616.25;;;12.23;76.13
12077;BME280;12420;42.676;23.262;2023-04-01T03:17:42;93617.94;;;12.18;76.34
12077;BME280;12420;42.676;23.262;2023-04-01T03:20:10;93606.00;;;12.00;76.60
12077;BME280;12420;42.676;23.262;2023-04-01T03:22:38;93629.75;;;11.70;79.91
12077;BME280;12420;42.676;23.262;2023-04-01T03:25:05;93632.13;;;11.82;81.15
12077;BME280;12420;42.676;23.262;2023-04-01T03:27:33;93627.13;;;11.88;81.61
12077;BME280;12420;42.676;23.262;2023-04-01T03:30:00;93628.22;;;11.92;79.05
12077;BME280;12420;42.676;23.262;2023-04-01T03:32:28;93597.19;;;11.86;72.79
12077;BME280;12420;42.676;23.262;2023-04-01T03:34:55;93612.03;;;12.22;73.90
12077;BME280;12420;42.676;23.262;2023-04-01T03:37:22;93609.94;;;12.30;74.95
12077;BME280;12420;42.676;23.262;2023-04-01T03:39:49;93581.28;;;12.27;77.15
12077;BME280;12420;42.676;23.262;2023-04-01T03:42:16;93579.31;;;12.45;78.69
12077;BME280;12420;42.676;23.262;2023-04-01T03:44:42;93570.22;;;12.52;78.21
12077;BME280;12420;42.676;23.262;2023-04-01T03:47:09;93556.84;;;12.58;79.15
12077;BME280;12420;42.676;23.262;2023-04-01T03:49:38;93537.69;;;12.45;84.42
12077;BME280;12420;42.676;23.262;2023-04-01T03:52:08;93533.22;;;12.25;85.67
12077;BME280;12420;42.676;23.262;2023-04-01T03:54:35;93532.03;;;12.35;86.20
12077;BME280;12420;42.676;23.262;2023-04-01T03:57:02;93518.31;;;12.37;86.29
12077;BME280;12420;42.676;23.262;2023-04-01T03:59:29;93493.81;;;12.01;89.04
12077;BME280;12420;42.676;23.262;2023-04-01T04:01:56;93470.69;;;11.66;90.10
12077;BME280;12420;42.676;23.262;2023-04-01T04:04:23;93515.50;;;11.80;91.71
12077;BME280;12420;42.676;23.262;2023-04-01T04:06:53;93471.13;;;11.47;92.36
12077;BME280;12420;42.676;23.262;2023-04-01T04:09:20;93505.50;;;11.92;92.69
12077;BME280;12420;42.676;23.262;2023-04-01T04:11:47;93478.19;;;11.81;90.92
12077;BME280;12420;42.676;23.262;2023-04-01T04:14:13;93485.31;;;11.99;87.25
12077;BME280;12420;42.676;23.262;2023-04-01T04:16:40;93490.16;;;11.91;90.27
12077;BME280;12420;42.676;23.262;2023-04-01T04:19:07;93495.19;;;11.77;92.52
12077;BME280;12420;42.676;23.262;2023-04-01T04:21:34;93494.00;;;11.63;93.33
12077;BME280;12420;42.676;23.262;2023-04-01T04:24:03;93447.75;;;11.33;93.15
12077;BME280;12420;42.676;23.262;2023-04-01T04:26:33;93494.28;;;11.74;92.73
12077;BME280;12420;42.676;23.262;2023-04-01T04:29:00;93483.38;;;11.77;92.04
12077;BME280;12420;42.676;23.262;2023-04-01T04:31:27;93447.47;;;11.54;92.10
12077;BME280;12420;42.676;23.262;2023-04-01T04:33:55;93481.88;;;11.83;91.20
12077;BME280;12420;42.676;23.262;2023-04-01T04:36:22;93435.47;;;11.51;88.30
12077;BME280;12420;42.676;23.262;2023-04-01T04:38:51;93474.59;;;11.95;88.45
12077;BME280;12420;42.676;23.262;2023-04-01T04:41:20;93437.97;;;11.64;88.87
12077;BME280;12420;42.676;23.262;2023-04-01T04:43:51;93467.03;;;11.96;89.32
12077;BME280;12420;42.676;23.262;2023-04-01T04:46:19;93468.00;;;11.91;90.28
12077;BME280;12420;42.676;23.262;2023-04-01T04:48:47;93469.44;;;11.92;89.12
12077;BME280;12420;42.676;23.262;2023-04-01T04:51:14;93455.41;;;11.90;89.31
12077;BME280;12420;42.676;23.262;2023-04-01T04:53:41;93441.38;;;11.80;90.00
12077;BME280;12420;42.676;23.262;2023-04-01T04:56:08;93347.09;;;11.05;87.69
12077;BME280;12420;42.676;23.262;2023-04-01T04:58:37;93432.19;;;11.45;88.74
12077;BME280;12420;42.676;23.262;2023-04-01T05:01:09;93407.63;;;11.41;89.49
12077;BME280;12420;42.676;23.262;2023-04-01T05:03:37;93473.78;;;11.70;85.93
12077;BME280;12420;42.676;23.262;2023-04-01T05:06:04;93449.25;;;11.66;88.67
12077;BME280;12420;42.676;23.262;2023-04-01T05:08:31;93417.81;;;11.39;89.25
12077;BME280;12420;42.676;23.262;2023-04-01T05:10:59;93416.25;;;11.53;89.40
12077;BME280;12420;42.676;23.262;2023-04-01T05:13:27;93429.28;;;11.68;86.91
12077;BME280;12420;42.676;23.262;2023-04-01T05:15:55;93371.50;;;11.32;87.52
12077;BME280;12420;42.676;23.262;2023-04-01T05:18:22;93396.13;;;11.52;87.46
12077;BME280;12420;42.676;23.262;2023-04-01T05:20:50;93408.34;;;11.74;87.60
12077;BME280;12420;42.676;23.262;2023-04-01T05:23:19;93400.91;;;11.52;85.60
12077;BME280;12420;42.676;23.262;2023-04-01T05:25:46;93410.63;;;11.68;88.24
12077;BME280;12420;42.676;23.262;2023-04-01T05:28:14;93383.00;;;11.53;88.95
12077;BME280;12420;42.676;23.262;2023-04-01T05:30:42;93429.28;;;11.68;88.85
12077;BME280;12420;42.676;23.262;2023-04-01T05:33:11;93414.81;;;11.77;89.06
12077;BME280;12420;42.676;23.262;2023-04-01T05:35:39;93374.28;;;11.57;88.86
12077;BME280;12420;42.676;23.262;2023-04-01T05:38:06;93406.75;;;11.97;86.36
12077;BME280;12420;42.676;23.262;2023-04-01T05:40:33;93390.09;;;12.22;86.01
12077;BME280;12420;42.676;23.262;2023-04-01T05:43:00;93400.56;;;12.31;84.62
12077;BME280;12420;42.676;23.262;2023-04-01T05:45:27;93397.78;;;12.31;80.62
12077;BME280;12420;42.676;23.262;2023-04-01T05:47:54;93408.38;;;12.67;81.25
12077;BME280;12420;42.676;23.262;2023-04-01T05:50:22;93421.91;;;12.80;81.73
12077;BME280;12420;42.676;23.262;2023-04-01T05:52:49;93378.41;;;12.83;77.15
12077;BME280;12420;42.676;23.262;2023-04-01T05:55:16;93391.03;;;13.29;76.12
12077;BME280;12420;42.676;23.262;2023-04-01T05:57:44;93373.00;;;13.47;71.28
12077;BME280;12420;42.676;23.262;2023-04-01T06:00:12;93369.69;;;13.31;72.10
12077;BME280;12420;42.676;23.262;2023-04-01T06:02:39;93402.41;;;13.77;71.66
12077;BME280;12420;42.676;23.262;2023-04-01T06:05:15;93376.34;;;13.73;67.25
12077;BME280;12420;42.676;23.262;2023-04-01T06:07:45;93386.13;;;13.64;68.43
12077;BME280;12420;42.676;23.262;2023-04-01T06:10:14;93379.13;;;13.73;71.23
12077;BME280;12420;42.676;23.262;2023-04-01T06:12:57;93400.25;;;13.85;68.50
12077;BME280;12420;42.676;23.262;2023-04-01T06:15:36;93398.03;;;13.84;67.13
12077;BME280;12420;42.676;23.262;2023-04-01T06:18:41;93390.50;;;13.67;66.95
12077;BME280;12420;42.676;23.262;2023-04-01T06:21:23;93383.47;;;13.66;66.65
12077;BME280;12420;42.676;23.262;2023-04-01T06:24:02;93398.41;;;13.71;66.49
12077;BME280;12420;42.676;23.262;2023-04-01T06:26:37;93411.66;;;13.80;65.05
12077;BME280;12420;42.676;23.262;2023-04-01T06:29:39;93388.28;;;13.93;66.65
12077;BME280;12420;42.676;23.262;2023-04-01T06:32:36;93385.50;;;13.93;65.46
12077;BME280;12420;42.676;23.262;2023-04-01T06:35:40;93382.09;;;13.84;67.03
12077;BME280;12420;42.676;23.262;2023-04-01T06:38:37;93374.53;;;13.95;66.26
12077;BME280;12420;42.676;23.262;2023-04-01T06:41:28;93349.91;;;13.91;65.10
12077;BME280;12420;42.676;23.262;2023-04-01T06:44:11;93366.44;;;13.89;64.52
12077;BME280;12420;42.676;23.262;2023-04-01T06:46:45;93353.97;;;13.80;63.39
12077;BME280;12420;42.676;23.262;2023-04-01T06:49:33;93366.19;;;13.95;62.73
12077;BME280;12420;42.676;23.262;2023-04-01T06:52:11;93337.13;;;13.78;64.08
12077;BME280;12420;42.676;23.262;2023-04-01T06:54:44;93326.72;;;13.69;64.74
12077;BME280;12420;42.676;23.262;2023-04-01T06:57:22;93339.84;;;13.96;64.06
12077;BME280;12420;42.676;23.262;2023-04-01T06:59:51;93350.31;;;14.15;64.04
12077;BME280;12420;42.676;23.262;2023-04-01T07:02:25;93322.72;;;14.09;62.30
12077;BME280;12420;42.676;23.262;2023-04-01T07:04:58;93360.66;;;14.14;62.55
12077;BME280;12420;42.676;23.262;2023-04-01T07:07:30;93339.28;;;14.07;64.60
12077;BME280;12420;42.676;23.262;2023-04-01T07:10:04;93356.28;;;14.11;64.22
12077;BME280;12420;42.676;23.262;2023-04-01T07:12:43;93361.16;;;14.20;64.91
12077;BME280;12420;42.676;23.262;2023-04-01T07:15:17;93338.84;;;14.10;64.89
12077;BME280;12420;42.676;23.262;2023-04-01T07:17:50;93345.16;;;14.11;64.37
12077;BME280;12420;42.676;23.262;2023-04-01T07:20:24;93304.50;;;13.79;65.29
12077;BME280;12420;42.676;23.262;2023-04-01T07:22:55;93366.81;;;14.03;65.97
12077;BME280;12420;42.676;23.262;2023-04-01T07:25:26;93383.25;;;14.18;65.24
12077;BME280;12420;42.676;23.262;2023-04-01T07:27:59;93352.81;;;14.30;66.55
12077;BME280;12420;42.676;23.262;2023-04-01T07:30:30;93344.03;;;14.33;65.44
12077;BME280;12420;42.676;23.262;2023-04-01T07:33:03;93374.06;;;14.45;64.72
12077;BME280;12420;42.676;23.262;2023-04-01T07:35:36;93372.81;;;14.65;64.67
12077;BME280;12420;42.676;23.262;2023-04-01T07:38:14;93307.72;;;14.51;63.91
12077;BME280;12420;42.676;23.262;2023-04-01T07:40:48;93365.03;;;14.54;64.38
12077;BME280;12420;42.676;23.262;2023-04-01T07:43:34;93365.28;;;14.39;65.19
12077;BME280;12420;42.676;23.262;2023-04-01T07:46:14;93314.13;;;14.34;65.12
12077;BME280;12420;42.676;23.262;2023-04-01T07:48:48;93347.25;;;14.40;64.81
12077;BME280;12420;42.676;23.262;2023-04-01T07:51:21;93345.63;;;14.37;66.06
12077;BME280;12420;42.676;23.262;2023-04-01T07:53:51;93361.53;;;14.63;65.62
12077;BME280;12420;42.676;23.262;2023-04-01T07:56:28;93350.25;;;14.71;63.87
12077;BME280;12420;42.676;23.262;2023-04-01T07:59:06;93303.44;;;14.50;63.54
12077;BME280;12420;42.676;23.262;2023-04-01T08:01:41;93280.31;;;14.38;64.08
12077;BME280;12420;42.676;23.262;2023-04-01T08:04:21;93337.63;;;14.80;64.37
12077;BME280;12420;42.676;23.262;2023-04-01T08:06:53;93312.16;;;14.73;64.24
12077;BME280;12420;42.676;23.262;2023-04-01T08:09:27;93354.78;;;14.95;65.11
12077;BME280;12420;42.676;23.262;2023-04-01T08:12:04;93331.19;;;15.06;65.23
12077;BME280;12420;42.676;23.262;2023-04-01T08:14:44;93361.06;;;15.15;62.96
12077;BME280;12420;42.676;23.262;2023-04-01T08:17:16;93314.59;;;15.08;63.07
12077;BME280;12420;42.676;23.262;2023-04-01T08:19:59;93333.34;;;15.17;62.96
12077;BME280;12420;42.676;23.262;2023-04-01T08:22:33;93298.47;;;15.16;63.66
12077;BME280;12420;42.676;23.262;2023-04-01T08:25:05;93275.00;;;15.00;62.74
12077;BME280;12420;42.676;23.262;2023-04-01T08:27:37;93281.66;;;15.36;62.51
12077;BME280;12420;42.676;23.262;2023-04-01T08:30:16;93290.38;;;15.61;61.65
12077;BME280;12420;42.676;23.262;2023-04-01T08:32:47;93271.88;;;15.66;61.94
12077;BME280;12420;42.676;23.262;2023-04-01T08:35:18;93272.06;;;15.90;61.00
12077;BME280;12420;42.676;23.262;2023-04-01T08:37:48;93210.31;;;15.52;61.68
12077;BME280;12420;42.676;23.262;2023-04-01T08:40:33;93243.88;;;15.95;60.57
12077;BME280;12420;42.676;23.262;2023-04-01T08:43:08;93195.00;;;15.84;61.24
12077;BME280;12420;42.676;23.262;2023-04-01T08:45:48;93234.16;;;16.39;59.26
12077;BME280;12420;42.676;23.262;2023-04-01T08:48:31;93206.50;;;16.22;58.30
12077;BME280;12420;42.676;23.262;2023-04-01T08:51:21;93220.66;;;16.36;58.83
12077;BME280;12420;42.676;23.262;2023-04-01T08:54:12;93237.97;;;16.56;57.32
12077;BME280;12420;42.676;23.262;2023-04-01T08:56:55;93244.47;;;16.70;55.75
12077;BME280;12420;42.676;23.262;2023-04-01T08:59:50;93211.91;;;16.63;55.29
12077;BME280;12420;42.676;23.262;2023-04-01T09:02:41;93240.19;;;16.90;54.67
12077;BME280;12420;42.676;23.262;2023-04-01T09:05:38;93226.06;;;16.77;53.41
12077;BME280;12420;42.676;23.262;2023-04-01T09:08:25;93227.31;;;16.85;53.22
12077;BME280;12420;42.676;23.262;2023-04-01T09:11:07;93234.88;;;16.95;52.47
12077;BME280;12420;42.676;23.262;2023-04-01T09:13:57;93222.00;;;17.01;51.90
12077;BME280;12420;42.676;23.262;2023-04-01T09:16:51;93224.31;;;17.05;49.40
12077;BME280;12420;42.676;23.262;2023-04-01T09:19:33;93232.22;;;17.08;50.75
12077;BME280;12420;42.676;23.262;2023-04-01T09:22:15;93210.91;;;16.91;50.30
12077;BME280;12420;42.676;23.262;2023-04-01T09:27:55;93205.34;;;17.03;44.62
12077;BME280;12420;42.676;23.262;2023-04-01T09:30:37;93194.91;;;17.27;44.73
12077;BME280;12420;42.676;23.262;2023-04-01T09:36:33;93162.97;;;17.30;40.08
12077;BME280;12420;42.676;23.262;2023-04-01T09:39:17;93182.41;;;17.64;39.83
12077;BME280;12420;42.676;23.262;2023-04-01T09:41:56;93188.25;;;17.79;40.39
12077;BME280;12420;42.676;23.262;2023-04-01T09:44:28;93169.00;;;17.97;39.68
12077;BME280;12420;42.676;23.262;2023-04-01T09:47:09;93153.88;;;18.14;39.80
12077;BME280;12420;42.676;23.262;2023-04-01T09:50:14;93171.31;;;18.64;39.79
12077;BME280;12420;42.676;23.262;2023-04-01T09:52:48;93164.59;;;18.95;38.50
12077;BME280;12420;42.676;23.262;2023-04-01T09:55:42;93152.34;;;19.02;37.41
12077;BME280;12420;42.676;23.262;2023-04-01T09:58:42;93142.41;;;19.13;38.23
12077;BME280;12420;42.676;23.262;2023-04-01T10:01:39;93133.09;;;19.22;37.62
12077;BME280;12420;42.676;23.262;2023-04-01T10:04:45;93126.13;;;19.23;37.67
12077;BME280;12420;42.676;23.262;2023-04-01T10:07:36;93129.53;;;19.07;36.92
12077;BME280;12420;42.676;23.262;2023-04-01T10:10:48;93125.88;;;19.05;37.30
12077;BME280;12420;42.676;23.262;2023-04-01T10:13:47;93128.66;;;18.91;37.95
12077;BME280;12420;42.676;23.262;2023-04-01T10:16:34;93114.16;;;19.08;37.27
12077;BME280;12420;42.676;23.262;2023-04-01T10:28:15;93106.38;;;19.07;39.47
12077;BME280;12420;42.676;23.262;2023-04-01T10:31:20;93094.84;;;19.15;36.34
12077;BME280;12420;42.676;23.262;2023-04-01T10:34:22;93102.72;;;19.04;36.08
12077;BME280;12420;42.676;23.262;2023-04-01T10:36:53;93080.72;;;19.13;36.56
12077;BME280;12420;42.676;23.262;2023-04-01T10:39:59;93083.69;;;18.89;36.76
12077;BME280;12420;42.676;23.262;2023-04-01T10:43:24;93086.50;;;19.03;37.04
12077;BME280;12420;42.676;23.262;2023-04-01T10:46:31;93090.25;;;19.07;36.95
12077;BME280;12420;42.676;23.262;2023-04-01T10:52:46;93076.38;;;18.70;42.17
12077;BME280;12420;42.676;23.262;2023-04-01T10:55:42;93074.75;;;18.79;43.80
12077;BME280;12420;42.676;23.262;2023-04-01T10:58:46;93065.38;;;18.74;39.41
12077;BME280;12420;42.676;23.262;2023-04-01T11:01:45;93045.31;;;18.52;37.81
12077;BME280;12420;42.676;23.262;2023-04-01T11:04:46;93012.91;;;18.49;38.51
12077;BME280;12420;42.676;23.262;2023-04-01T11:10:57;93074.19;;;18.69;38.43
12077;BME280;12420;42.676;23.262;2023-04-01T11:20:09;93062.19;;;18.80;38.47
12077;BME280;12420;42.676;23.262;2023-04-01T11:23:02;93074.38;;;18.59;38.84
12077;BME280;12420;42.676;23.262;2023-04-01T11:25:58;93097.41;;;18.57;41.35
12077;BME280;12420;42.676;23.262;2023-04-01T11:28:55;93138.69;;;18.31;42.57
12077;BME280;12420;42.676;23.262;2023-04-01T11:31:47;93133.75;;;18.18;46.48
12077;BME280;12420;42.676;23.262;2023-04-01T11:34:30;93149.13;;;18.05;48.70
12077;BME280;12420;42.676;23.262;2023-04-01T11:37:07;93178.75;;;17.61;51.14
12077;BME280;12420;42.676;23.262;2023-04-01T11:39:46;93203.94;;;17.38;55.63
12077;BME280;12420;42.676;23.262;2023-04-01T11:42:26;93175.19;;;15.90;66.28
12077;BME280;12420;42.676;23.262;2023-04-01T11:45:11;93228.56;;;15.96;73.89
12077;BME280;12420;42.676;23.262;2023-04-01T11:48:00;93266.63;;;15.19;83.08
12077;BME280;12420;42.676;23.262;2023-04-01T11:50:42;93296.31;;;14.86;89.71
12077;BME280;12420;42.676;23.262;2023-04-01T11:53:35;93315.50;;;14.91;89.18
12077;BME280;12420;42.676;23.262;2023-04-01T11:56:14;93312.09;;;14.44;92.52
12077;BME280;12420;42.676;23.262;2023-04-01T11:58:58;93306.94;;;14.02;95.82
12077;BME280;12420;42.676;23.262;2023-04-01T12:01:47;93311.75;;;13.55;100.00
12077;BME280;12420;42.676;23.262;2023-04-01T12:04:36;93313.50;;;13.60;100.00
12077;BME280;12420;42.676;23.262;2023-04-01T12:07:18;93287.03;;;13.04;100.00
12077;BME280;12420;42.676;23.262;2023-04-01T12:09:55;93283.19;;;12.73;100.00
12077;BME280;12420;42.676;23.262;2023-04-01T12:12:29;93292.88;;;12.54;100.00
12077;BME280;12420;42.676;23.262;2023-04-01T12:15:14;93280.91;;;12.62;100.00
12077;BME280;12420;42.676;23.262;2023-04-01T12:17:46;93279.94;;;12.67;100.00
12077;BME280;12420;42.676;23.262;2023-04-01T12:20:28;93262.19;;;12.79;100.00
12077;BME280;12420;42.676;23.262;2023-04-01T12:23:08;93271.97;;;12.98;100.00
12077;BME280;12420;42.676;23.262;2023-04-01T12:28:50;93289.84;;;13.32;100.00
12077;BME280;12420;42.676;23.262;2023-04-01T12:31:29;93296.34;;;13.44;100.00
12077;BME280;12420;42.676;23.262;2023-04-01T12:37:12;93303.34;;;13.45;100.00
12077;BME280;12420;42.676;23.262;2023-04-01T12:39:59;93294.16;;;13.25;100.00
12077;BME280;12420;42.676;23.262;2023-04-01T12:42:42;93273.47;;;13.09;100.00
12077;BME280;12420;42.676;23.262;2023-04-01T12:45:31;93276.84;;;13.34;100.00
12077;BME280;12420;42.676;23.262;2023-04-01T12:51:39;93278.66;;;13.49;100.00
12077;BME280;12420;42.676;23.262;2023-04-01T12:57:34;93261.53;;;13.53;100.00
12077;BME280;12420;42.676;23.262;2023-04-01T13:00:29;93249.69;;;13.52;100.00
12077;BME280;12420;42.676;23.262;2023-04-01T13:03:16;93247.97;;;13.57;100.00
12077;BME280;12420;42.676;23.262;2023-04-01T13:06:24;93262.88;;;13.52;100.00
12077;BME280;12420;42.676;23.262;2023-04-01T13:09:00;93227.19;;;13.58;100.00
12077;BME280;12420;42.676;23.262;2023-04-01T13:11:37;93201.41;;;13.48;100.00
12077;BME280;12420;42.676;23.262;2023-04-01T13:14:19;93195.72;;;13.55;100.00
12077;BME280;12420;42.676;23.262;2023-04-01T13:16:57;93189.84;;;13.41;100.00
12077;BME280;12420;42.676;23.262;2023-04-01T13:19:34;93207.56;;;13.56;100.00
12077;BME280;12420;42.676;23.262;2023-04-01T13:22:06;93207.47;;;13.83;100.00
12077;BME280;12420;42.676;23.262;2023-04-01T13:24:43;93194.16;;;13.91;100.00
12077;BME280;12420;42.676;23.262;2023-04-01T13:27:17;93200.03;;;13.95;100.00
12077;BME280;12420;42.676;23.262;2023-04-01T13:29:58;93207.78;;;13.97;96.82
12077;BME280;12420;42.676;23.262;2023-04-01T13:32:33;93166.81;;;13.87;96.82
12077;BME280;12420;42.676;23.262;2023-04-01T13:35:14;93185.69;;;14.38;93.73
12077;BME280;12420;42.676;23.262;2023-04-01T13:37:52;93173.53;;;14.33;90.28
12077;BME280;12420;42.676;23.262;2023-04-01T13:40:33;93163.25;;;14.55;92.76
12077;BME280;12420;42.676;23.262;2023-04-01T13:43:10;93130.84;;;14.50;88.97
12077;BME280;12420;42.676;23.262;2023-04-01T13:45:55;93145.97;;;14.66;84.03
12077;BME280;12420;42.676;23.262;2023-04-01T13:48:36;93155.84;;;14.89;85.29
12077;BME280;12420;42.676;23.262;2023-04-01T13:51:26;93149.25;;;14.94;81.81
12077;BME280;12420;42.676;23.262;2023-04-01T13:54:01;93151.53;;;15.07;78.07
12077;BME280;12420;42.676;23.262;2023-04-01T13:56:44;93147.91;;;15.26;78.38
12077;BME280;12420;42.676;23.262;2023-04-01T13:59:32;93143.59;;;15.45;78.08
12077;BME280;12420;42.676;23.262;2023-04-01T14:02:18;93144.63;;;15.71;75.92
12077;BME280;12420;42.676;23.262;2023-04-01T14:04:56;93124.16;;;15.78;73.15
12077;BME280;12420;42.676;23.262;2023-04-01T14:07:48;93124.53;;;16.05;71.72
12077;BME280;12420;42.676;23.262;2023-04-01T14:10:20;93133.50;;;16.04;72.99
12077;BME280;12420;42.676;23.262;2023-04-01T14:12:58;93119.41;;;16.02;72.22
12077;BME280;12420;42.676;23.262;2023-04-01T14:15:39;93130.59;;;16.35;69.43
12077;BME280;12420;42.676;23.262;2023-04-01T14:18:19;93084.06;;;15.95;67.38
12077;BME280;12420;42.676;23.262;2023-04-01T14:21:06;93095.66;;;16.13;66.34
12077;BME280;12420;42.676;23.262;2023-04-01T14:23:53;93115.94;;;16.46;68.85
12077;BME280;12420;42.676;23.262;2023-04-01T14:26:33;93114.50;;;16.57;66.93